Time;durP1;ratioP1;P1;durP2;ratioP2;P2;SDS_P1;SDS_P2;PMS_P1;PMS_P2;Temp;Humidity;BMP_temperature;BMP_pressure;BME280_temperature;BME280_humidity;BME280_pressure;Samples;Min_cycle;Max_cycle;Signal;HPM_P1;HPM_P2
2022/03/08 00:00:10;;;;;;;10.48;7.40;;;;;;;;;;4938506;28;20419;-83
2022/03/08 00:02:36;;;;;;;10.40;7.18;;;;;;;;;;4955856;28;20903;-82
2022/03/08 00:05:03;;;;;;;12.98;7.63;;;;;;;;;;4941179;28;20416;-82
2022/03/08 00:07:29;;;;;;;11.60;7.45;;;;;;;;;;4939749;28;20815;-82
2022/03/08 00:09:55;;;;;;;11.38;7.68;;;;;;;;;;4956198;28;20428;-82
2022/03/08 00:12:22;;;;;;;11.93;7.38;;;;;;;;;;4939901;28;20499;-82
2022/03/08 00:14:48;;;;;;;11.77;7.35;;;;;;;;;;4955387;28;20912;-82
2022/03/08 00:17:14;;;;;;;11.82;7.63;;;;;;;;;;4955286;28;21014;-81
2022/03/08 00:19:40;;;;;;;12.45;7.80;;;;;;;;;;4955487;28;20459;-82
2022/03/08 00:22:06;;;;;;;12.10;7.40;;;;;;;;;;4955463;28;20435;-82
2022/03/08 00:24:32;;;;;;;11.85;7.80;;;;;;;;;;4957847;28;20817;-82
2022/03/08 00:26:58;;;;;;;12.18;7.72;;;;;;;;;;4945082;28;20412;-82
2022/03/08 00:29:24;;;;;;;12.85;7.75;;;;;;;;;;4944493;28;20463;-82
2022/03/08 00:31:50;;;;;;;10.90;7.50;;;;;;;;;;4928877;28;20443;-82
2022/03/08 00:34:16;;;;;;;11.50;7.60;;;;;;;;;;4924335;29;20418;-82
2022/03/08 00:36:43;;;;;;;12.65;7.70;;;;;;;;;;4956285;28;20415;-82
2022/03/08 00:39:09;;;;;;;12.30;7.73;;;;;;;;;;4958848;28;20419;-82
2022/03/08 00:41:35;;;;;;;12.63;7.78;;;;;;;;;;4959219;28;20432;-82
2022/03/08 00:44:01;;;;;;;12.10;7.73;;;;;;;;;;4962308;28;20416;-82
2022/03/08 00:46:27;;;;;;;11.20;7.85;;;;;;;;;;4957665;28;20411;-82
2022/03/08 00:48:55;;;;;;;11.88;7.55;;;;;;;;;;4959102;28;20768;-81
2022/03/08 00:51:21;;;;;;;12.52;8.18;;;;;;;;;;4942491;28;20422;-82
2022/03/08 00:53:48;;;;;;;11.48;8.00;;;;;;;;;;4942394;28;20447;-82
2022/03/08 00:56:14;;;;;;;13.13;8.20;;;;;;;;;;4959222;28;20439;-82
2022/03/08 00:58:41;;;;;;;13.30;8.45;;;;;;;;;;4943870;28;20411;-82
2022/03/08 01:01:07;;;;;;;12.85;8.50;;;;;;;;;;4943546;28;20767;-82
2022/03/08 01:03:33;;;;;;;13.75;8.38;;;;;;;;;;4958876;28;20416;-82
2022/03/08 01:05:59;;;;;;;13.70;8.52;;;;;;;;;;4958616;28;20416;-82
2022/03/08 01:08:25;;;;;;;12.32;7.82;;;;;;;;;;4957729;28;20930;-82
2022/03/08 01:10:52;;;;;;;13.13;8.07;;;;;;;;;;4957306;28;20418;-82
2022/03/08 01:13:18;;;;;;;14.38;7.80;;;;;;;;;;4961002;28;20412;-82
2022/03/08 01:15:44;;;;;;;12.10;8.27;;;;;;;;;;4925774;29;20473;-82
2022/03/08 01:18:11;;;;;;;13.77;8.60;;;;;;;;;;4940923;28;20915;-81
2022/03/08 01:20:37;;;;;;;14.07;8.98;;;;;;;;;;4958331;28;20950;-81
2022/03/08 01:23:03;;;;;;;14.15;8.85;;;;;;;;;;4958261;28;20444;-81
2022/03/08 01:25:30;;;;;;;16.13;8.88;;;;;;;;;;4957778;28;20908;-82
2022/03/08 01:27:56;;;;;;;12.70;8.17;;;;;;;;;;4957967;28;20435;-81
2022/03/08 01:30:23;;;;;;;15.05;8.77;;;;;;;;;;4940910;28;20421;-81
2022/03/08 01:32:49;;;;;;;14.23;8.30;;;;;;;;;;4941603;28;20507;-81
2022/03/08 01:35:16;;;;;;;13.38;8.30;;;;;;;;;;4957487;28;20818;-81
2022/03/08 01:37:42;;;;;;;14.63;9.25;;;;;;;;;;4957878;28;20783;-81
2022/03/08 01:40:09;;;;;;;17.63;9.52;;;;;;;;;;4957134;28;20416;-81
2022/03/08 01:42:35;;;;;;;14.70;8.75;;;;;;;;;;4957068;28;20435;-81
2022/03/08 01:45:01;;;;;;;14.30;8.90;;;;;;;;;;4956917;28;20442;-81
2022/03/08 01:47:28;;;;;;;13.85;8.73;;;;;;;;;;4941714;28;20416;-81
2022/03/08 01:49:54;;;;;;;14.33;8.40;;;;;;;;;;4955440;28;20408;-81
2022/03/08 01:52:21;;;;;;;15.30;8.85;;;;;;;;;;4957799;28;20749;-82
2022/03/08 01:54:48;;;;;;;15.85;9.45;;;;;;;;;;4957025;28;20862;-82
2022/03/08 01:57:14;;;;;;;15.57;9.60;;;;;;;;;;4956970;28;20439;-82
2022/03/08 01:59:41;;;;;;;15.02;8.85;;;;;;;;;;4956474;28;20486;-82
2022/03/08 02:02:08;;;;;;;13.13;9.02;;;;;;;;;;4940196;28;20523;-82
2022/03/08 02:04:34;;;;;;;14.50;9.63;;;;;;;;;;4957022;28;20439;-82
2022/03/08 02:07:00;;;;;;;13.40;9.05;;;;;;;;;;4957296;28;20416;-82
2022/03/08 02:09:27;;;;;;;14.60;9.00;;;;;;;;;;4956414;28;20432;-82
2022/03/08 02:11:53;;;;;;;17.07;10.40;;;;;;;;;;4940149;28;20468;-82
2022/03/08 02:14:19;;;;;;;14.68;9.40;;;;;;;;;;4956456;28;20451;-82
2022/03/08 02:16:46;;;;;;;14.35;9.32;;;;;;;;;;4961309;28;20832;-82
2022/03/08 02:19:16;;;;;;;15.52;9.45;;;;;;;;;;4956507;28;20420;-83
2022/03/08 02:21:43;;;;;;;16.15;9.70;;;;;;;;;;4956921;28;20520;-82
2022/03/08 02:24:09;;;;;;;15.95;10.10;;;;;;;;;;4956226;28;20497;-82
2022/03/08 02:26:36;;;;;;;15.68;9.55;;;;;;;;;;4940643;28;20408;-82
2022/03/08 02:29:04;;;;;;;15.37;9.70;;;;;;;;;;4956665;28;20427;-83
2022/03/08 02:31:30;;;;;;;17.85;9.60;;;;;;;;;;4938489;28;20557;-82
2022/03/08 02:33:56;;;;;;;13.73;9.27;;;;;;;;;;4940635;28;20420;-82
2022/03/08 02:36:22;;;;;;;15.40;9.60;;;;;;;;;;4940679;28;20419;-82
2022/03/08 02:38:49;;;;;;;14.43;9.77;;;;;;;;;;4940868;28;20439;-82
2022/03/08 02:41:15;;;;;;;15.15;10.23;;;;;;;;;;4957239;28;20423;-82
2022/03/08 02:43:41;;;;;;;15.63;9.20;;;;;;;;;;4940520;28;20418;-82
2022/03/08 02:46:07;;;;;;;14.23;9.27;;;;;;;;;;4956124;28;20489;-82
2022/03/08 02:48:34;;;;;;;16.43;9.80;;;;;;;;;;4942170;28;20487;-82
2022/03/08 02:51:00;;;;;;;15.23;9.48;;;;;;;;;;4955988;28;20943;-82
2022/03/08 02:53:26;;;;;;;15.05;9.63;;;;;;;;;;4957138;28;20495;-81
2022/03/08 02:55:53;;;;;;;19.15;10.50;;;;;;;;;;4956435;28;20444;-82
2022/03/08 02:58:19;;;;;;;18.50;11.80;;;;;;;;;;4955718;28;20422;-81
2022/03/08 03:00:45;;;;;;;16.65;10.55;;;;;;;;;;4923895;28;20415;-82
2022/03/08 03:03:12;;;;;;;16.75;10.48;;;;;;;;;;4955854;28;20436;-82
2022/03/08 03:05:38;;;;;;;14.63;10.00;;;;;;;;;;4939833;28;20448;-82
2022/03/08 03:08:05;;;;;;;14.77;9.95;;;;;;;;;;4939563;28;20416;-82
2022/03/08 03:10:31;;;;;;;16.20;10.45;;;;;;;;;;4939446;28;20435;-82
2022/03/08 03:12:57;;;;;;;16.92;10.35;;;;;;;;;;4956076;28;20420;-82
2022/03/08 03:15:24;;;;;;;18.05;10.70;;;;;;;;;;4955350;28;20937;-82
2022/03/08 03:17:51;;;;;;;15.07;9.83;;;;;;;;;;4955178;28;20419;-82
2022/03/08 03:20:18;;;;;;;16.08;10.65;;;;;;;;;;4956067;28;20424;-82
2022/03/08 03:22:45;;;;;;;16.15;10.68;;;;;;;;;;4955680;28;20477;-81
2022/03/08 03:25:12;;;;;;;15.45;10.25;;;;;;;;;;4940081;28;20446;-82
2022/03/08 03:27:38;;;;;;;16.42;10.38;;;;;;;;;;4955143;28;20412;-82
2022/03/08 03:30:06;;;;;;;16.48;10.77;;;;;;;;;;4939414;28;20408;-82
2022/03/08 03:32:32;;;;;;;15.13;10.10;;;;;;;;;;4955873;28;20416;-82
2022/03/08 03:34:58;;;;;;;18.10;10.57;;;;;;;;;;4926157;28;20424;-82
2022/03/08 03:37:24;;;;;;;15.65;10.57;;;;;;;;;;4922044;28;20533;-82
2022/03/08 03:39:51;;;;;;;16.60;10.70;;;;;;;;;;4923578;28;20946;-82
2022/03/08 03:42:17;;;;;;;16.80;10.93;;;;;;;;;;4939274;28;20424;-82
2022/03/08 03:44:43;;;;;;;18.23;11.38;;;;;;;;;;4955638;28;20427;-81
2022/03/08 03:47:09;;;;;;;18.47;11.50;;;;;;;;;;4940219;28;20419;-80
2022/03/08 03:49:35;;;;;;;17.58;11.30;;;;;;;;;;4954737;28;20423;-80
2022/03/08 03:52:01;;;;;;;16.30;11.13;;;;;;;;;;4955531;28;20483;-80
2022/03/08 03:54:27;;;;;;;18.08;11.80;;;;;;;;;;4939328;28;20923;-81
2022/03/08 03:56:53;;;;;;;18.45;11.95;;;;;;;;;;4938666;28;20435;-81
2022/03/08 03:59:19;;;;;;;18.30;11.57;;;;;;;;;;4939197;28;20491;-80
2022/03/08 04:01:45;;;;;;;18.27;12.18;;;;;;;;;;4938884;28;20507;-81
2022/03/08 04:04:11;;;;;;;17.98;11.63;;;;;;;;;;4923726;28;20495;-80
2022/03/08 04:06:38;;;;;;;19.88;12.32;;;;;;;;;;4955105;28;20935;-80
2022/03/08 04:09:05;;;;;;;20.25;12.45;;;;;;;;;;4938993;28;20432;-81
2022/03/08 04:11:31;;;;;;;17.95;12.23;;;;;;;;;;4954694;28;20418;-81
2022/03/08 04:13:57;;;;;;;18.50;12.48;;;;;;;;;;4954891;28;20418;-81
2022/03/08 04:16:23;;;;;;;17.63;12.07;;;;;;;;;;4939395;28;20522;-81
2022/03/08 04:18:50;;;;;;;19.63;12.48;;;;;;;;;;4954930;28;20418;-82
2022/03/08 04:21:16;;;;;;;21.58;13.90;;;;;;;;;;4938851;28;20416;-81
2022/03/08 04:23:42;;;;;;;18.98;12.63;;;;;;;;;;4954863;28;20451;-81
2022/03/08 04:26:08;;;;;;;20.92;14.40;;;;;;;;;;4953958;28;20408;-81
2022/03/08 04:28:34;;;;;;;19.05;12.88;;;;;;;;;;4955072;28;20430;-81
2022/03/08 04:31:00;;;;;;;20.17;13.52;;;;;;;;;;4938354;28;20411;-81
2022/03/08 04:33:26;;;;;;;21.47;13.53;;;;;;;;;;4954669;28;20420;-81
2022/03/08 04:35:52;;;;;;;21.13;13.13;;;;;;;;;;4954514;28;20416;-81
2022/03/08 04:38:18;;;;;;;19.90;13.32;;;;;;;;;;4954884;28;20428;-81
2022/03/08 04:40:44;;;;;;;23.27;15.85;;;;;;;;;;4939144;28;20481;-81
2022/03/08 04:43:11;;;;;;;21.00;14.27;;;;;;;;;;4938414;28;20474;-81
2022/03/08 04:45:37;;;;;;;20.93;13.53;;;;;;;;;;4954700;28;20420;-80
2022/03/08 04:48:03;;;;;;;19.80;12.88;;;;;;;;;;4938953;28;21166;-81
2022/03/08 04:50:29;;;;;;;21.15;13.73;;;;;;;;;;4954677;28;20475;-81
2022/03/08 04:52:55;;;;;;;23.20;13.45;;;;;;;;;;4955216;28;20418;-81
2022/03/08 04:55:21;;;;;;;21.40;13.95;;;;;;;;;;4953299;28;20427;-80
2022/03/08 04:57:48;;;;;;;21.83;14.07;;;;;;;;;;4938716;28;20507;-81
2022/03/08 05:00:14;;;;;;;21.88;14.68;;;;;;;;;;4954224;28;20416;-81
2022/03/08 05:02:41;;;;;;;21.83;14.45;;;;;;;;;;4923356;28;20447;-81
2022/03/08 05:05:08;;;;;;;23.77;14.25;;;;;;;;;;4953805;28;20416;-81
2022/03/08 05:07:37;;;;;;;22.13;14.48;;;;;;;;;;4939151;28;20495;-81
2022/03/08 05:10:08;;;;;;;23.90;14.60;;;;;;;;;;4939544;28;20485;-80
2022/03/08 05:12:34;;;;;;;22.00;14.43;;;;;;;;;;4957660;28;20829;-81
2022/03/08 05:15:00;;;;;;;21.20;14.30;;;;;;;;;;4942143;28;20408;-81
2022/03/08 05:17:27;;;;;;;19.93;13.47;;;;;;;;;;4957399;28;20422;-80
2022/03/08 05:19:53;;;;;;;23.80;15.02;;;;;;;;;;4926582;28;20888;-80
2022/03/08 05:22:19;;;;;;;22.93;14.43;;;;;;;;;;4958366;28;20471;-80
2022/03/08 05:24:45;;;;;;;25.15;15.38;;;;;;;;;;4956982;28;20498;-81
2022/03/08 05:27:11;;;;;;;22.83;14.65;;;;;;;;;;4958000;28;20873;-80
2022/03/08 05:29:37;;;;;;;20.50;14.02;;;;;;;;;;4957461;28;20419;-80
2022/03/08 05:32:04;;;;;;;21.00;14.07;;;;;;;;;;4954123;28;20433;-80
2022/03/08 05:34:30;;;;;;;22.90;14.40;;;;;;;;;;4954119;28;20434;-80
2022/03/08 05:36:57;;;;;;;25.05;15.75;;;;;;;;;;4926702;28;20495;-80
2022/03/08 05:39:23;;;;;;;20.38;13.82;;;;;;;;;;4942024;28;20416;-80
2022/03/08 05:41:49;;;;;;;21.37;14.30;;;;;;;;;;4975735;28;20436;-80
2022/03/08 05:44:16;;;;;;;19.77;13.52;;;;;;;;;;4959719;28;20496;-81
2022/03/08 05:46:42;;;;;;;20.33;14.10;;;;;;;;;;4964712;28;20416;-80
2022/03/08 05:49:08;;;;;;;20.35;13.93;;;;;;;;;;4949161;28;20412;-80
2022/03/08 05:51:34;;;;;;;22.83;14.13;;;;;;;;;;4963322;28;20420;-80
2022/03/08 05:54:01;;;;;;;20.48;14.43;;;;;;;;;;4963977;28;20416;-80
2022/03/08 05:56:27;;;;;;;24.05;15.23;;;;;;;;;;4962231;28;20416;-81
2022/03/08 05:58:53;;;;;;;20.83;14.07;;;;;;;;;;4968015;28;20498;-81
2022/03/08 06:01:19;;;;;;;19.52;14.13;;;;;;;;;;4962633;28;20424;-81
2022/03/08 06:03:45;;;;;;;24.60;15.43;;;;;;;;;;4944093;28;20408;-81
2022/03/08 06:06:12;;;;;;;22.08;14.73;;;;;;;;;;4961586;28;20416;-81
2022/03/08 06:08:38;;;;;;;21.67;13.90;;;;;;;;;;4964484;28;20415;-81
2022/03/08 06:11:05;;;;;;;24.17;14.65;;;;;;;;;;4974134;28;20417;-82
2022/03/08 06:13:31;;;;;;;20.85;14.52;;;;;;;;;;4970260;28;20426;-82
2022/03/08 06:15:57;;;;;;;21.30;13.85;;;;;;;;;;4955963;28;20921;-82
2022/03/08 06:18:23;;;;;;;21.75;14.63;;;;;;;;;;4953597;28;20416;-81
2022/03/08 06:20:49;;;;;;;22.85;14.80;;;;;;;;;;4970677;28;20412;-81
2022/03/08 06:23:15;;;;;;;25.52;15.73;;;;;;;;;;4967342;28;20994;-80
2022/03/08 06:25:41;;;;;;;25.33;16.02;;;;;;;;;;4946725;28;20907;-79
2022/03/08 06:28:07;;;;;;;21.73;15.00;;;;;;;;;;4956246;28;20416;-82
2022/03/08 06:30:34;;;;;;;21.15;14.57;;;;;;;;;;4956606;28;20793;-83
2022/03/08 06:33:00;;;;;;;24.35;14.93;;;;;;;;;;4922331;28;20421;-78
2022/03/08 06:35:26;;;;;;;26.40;18.25;;;;;;;;;;4952046;28;20443;-78
2022/03/08 06:37:52;;;;;;;23.27;15.65;;;;;;;;;;4956028;28;20506;-79
2022/03/08 06:40:18;;;;;;;23.35;15.35;;;;;;;;;;4940863;28;20436;-79
2022/03/08 06:42:44;;;;;;;20.67;14.35;;;;;;;;;;4957163;28;20427;-80
2022/03/08 06:45:11;;;;;;;21.02;13.52;;;;;;;;;;4956611;28;20931;-78
2022/03/08 06:47:38;;;;;;;21.13;14.07;;;;;;;;;;4947494;28;20428;-78
2022/03/08 06:50:05;;;;;;;22.48;13.80;;;;;;;;;;4949614;28;20472;-79
2022/03/08 06:52:31;;;;;;;19.75;13.52;;;;;;;;;;4953096;28;20436;-77
2022/03/08 06:54:57;;;;;;;21.02;14.43;;;;;;;;;;4952785;28;20514;-77
2022/03/08 06:57:24;;;;;;;19.75;13.35;;;;;;;;;;4935199;28;20445;-77
2022/03/08 06:59:50;;;;;;;23.08;14.20;;;;;;;;;;4935260;28;20431;-77
2022/03/08 07:02:16;;;;;;;18.50;12.10;;;;;;;;;;4943033;28;20435;-77
2022/03/08 07:04:42;;;;;;;16.38;12.18;;;;;;;;;;4954836;28;20452;-79
2022/03/08 07:07:08;;;;;;;18.25;11.90;;;;;;;;;;4954069;28;20502;-77
2022/03/08 07:09:34;;;;;;;18.88;12.07;;;;;;;;;;4923590;28;20430;-78
2022/03/08 07:12:00;;;;;;;18.15;12.10;;;;;;;;;;4934697;28;20432;-77
2022/03/08 07:14:27;;;;;;;15.50;11.43;;;;;;;;;;4943295;28;20439;-77
2022/03/08 07:16:53;;;;;;;18.42;12.75;;;;;;;;;;4935020;28;20469;-78
2022/03/08 07:19:19;;;;;;;17.35;12.07;;;;;;;;;;4949779;29;20422;-77
2022/03/08 07:21:48;;;;;;;18.35;11.70;;;;;;;;;;4944021;28;20436;-77
2022/03/08 07:24:15;;;;;;;17.13;11.50;;;;;;;;;;4947955;29;20482;-79
2022/03/08 07:26:41;;;;;;;15.98;11.13;;;;;;;;;;4952129;28;20426;-79
2022/03/08 07:29:08;;;;;;;16.10;11.67;;;;;;;;;;4950532;29;20464;-79
2022/03/08 07:31:34;;;;;;;16.90;11.63;;;;;;;;;;4951037;28;20437;-80
2022/03/08 07:34:00;;;;;;;15.70;11.07;;;;;;;;;;4958526;28;20993;-80
2022/03/08 07:36:26;;;;;;;16.33;11.82;;;;;;;;;;4951396;29;20434;-79
2022/03/08 07:38:53;;;;;;;15.52;11.43;;;;;;;;;;4947253;29;20789;-78
2022/03/08 07:41:19;;;;;;;16.02;11.50;;;;;;;;;;4949321;28;20755;-79
2022/03/08 07:43:45;;;;;;;16.83;11.60;;;;;;;;;;4933992;29;20421;-79
2022/03/08 07:46:11;;;;;;;15.75;11.38;;;;;;;;;;4911098;29;20427;-80
2022/03/08 07:48:38;;;;;;;14.10;10.80;;;3.40;99.90;;;;;;4949428;28;20434;-83
2022/03/08 07:51:04;;;;;;;14.82;10.70;;;;;;;;;;4951144;28;20429;-83
2022/03/08 07:53:30;;;;;;;15.50;10.85;;;;;;;;;;4935158;29;20979;-83
2022/03/08 07:55:56;;;;;;;13.60;10.15;;;;;;;;;;4931948;29;20513;-83
2022/03/08 07:58:22;;;;;;;15.02;10.70;;;;;;;;;;4948708;28;20516;-83
2022/03/08 08:00:48;;;;;;;13.23;10.35;;;;;;;;;;4949964;28;20430;-83
2022/03/08 08:03:14;;;;;;;14.50;9.98;;;;;;;;;;4947467;29;20859;-83
2022/03/08 08:05:41;;;;;;;14.25;10.40;;;;;;;;;;4950560;28;20425;-84
2022/03/08 08:08:07;;;;;;;14.57;10.50;;;;;;;;;;4934792;29;20476;-84
2022/03/08 08:10:34;;;;;;;14.32;10.68;;;;;;;;;;4949010;28;20461;-85
2022/03/08 08:13:01;;;;;;;14.07;10.18;;;;;;;;;;4930056;29;20524;-83
2022/03/08 08:15:27;;;;;;;13.10;10.45;;;;;;;;;;4951761;29;20836;-82
2022/03/08 08:17:53;;;;;;;14.20;10.60;;;;;;;;;;4946405;29;20469;-83
2022/03/08 08:20:21;;;;;;;15.93;10.75;;;;;;;;;;4949547;28;20437;-84
2022/03/08 08:22:47;;;;;;;13.35;10.27;;;;;;;;;;4949960;28;20433;-84
2022/03/08 08:25:13;;;;;;;14.70;10.35;;;;;;;;;;4929563;29;20546;-83
2022/03/08 08:27:40;;;;;;;13.77;9.77;;;;;;;;;;4916671;29;20428;-83
2022/03/08 08:30:07;;;;;;;12.45;9.70;;;;;;;;;;4924086;29;20792;-84
2022/03/08 08:32:33;;;;;;;14.57;9.52;;;;;;;;;;4945270;29;20944;-85
2022/03/08 08:34:59;;;;;;;13.35;9.85;;;;;;;;;;4948650;29;21006;-83
2022/03/08 08:37:25;;;;;;;11.95;9.75;;;;;;;;;;4937308;28;20424;-84
2022/03/08 08:39:52;;;;;;;14.80;10.00;;;;;;;;;;4950313;28;20437;-82
2022/03/08 08:42:18;;;;;;;13.33;9.40;;;;;;;;;;4947113;28;20481;-82
2022/03/08 08:44:45;;;;;;;12.38;9.90;;;;;;;;;;4932941;29;20441;-82
2022/03/08 08:47:12;;;;;;;14.63;9.90;;;;;;;;;;4946736;29;20429;-82
2022/03/08 08:49:38;;;;;;;14.10;9.77;;;;;;;;;;4929607;28;20690;-82
2022/03/08 08:52:04;;;;;;;12.85;9.10;;;;;;;;;;4922685;29;20444;-81
2022/03/08 08:54:31;;;;;;;13.93;9.43;;;;;;;;;;4940435;28;20488;-82
2022/03/08 08:56:57;;;;;;;12.38;9.50;;;;;;;;;;4951785;28;20425;-84
2022/03/08 08:59:23;;;;;;;12.32;8.63;;;;;;;;;;4936824;29;20480;-84
2022/03/08 09:01:49;;;;;;;12.57;9.13;;;;;;;;;;4950835;29;20492;-80
2022/03/08 09:04:15;;;;;;;11.20;9.13;;;;;;;;;;4952147;28;20436;-83
2022/03/08 09:06:42;;;;;;;13.00;9.10;;;;;;;;;;4947772;28;20456;-80
2022/03/08 09:09:09;;;;;;;12.25;9.80;;;;;;;;;;4952585;28;20552;-80
2022/03/08 09:11:36;;;;;;;13.00;9.80;;;;;;;;;;4937421;29;20419;-80
2022/03/08 09:14:02;;;;;;;12.82;9.73;;;;;;;;;;4955004;28;20759;-81
2022/03/08 09:16:29;;;;;;;11.15;9.25;;;;;;;;;;4953877;28;20456;-81
2022/03/08 09:18:55;;;;;;;11.40;8.60;;;;;;;;;;4953565;29;20417;-85
2022/03/08 09:21:21;;;;;;;11.68;8.60;;;;;;;;;;4919915;29;20419;-84
2022/03/08 09:23:47;;;;;;;12.52;8.82;;;;;;;;;;4948755;28;20434;-83
2022/03/08 09:26:13;;;;;;;13.27;9.20;;;;;;;;;;4954495;29;20519;-85
2022/03/08 09:28:39;;;;;;;10.68;8.88;;;;;;;;;;4954733;29;20410;-83
2022/03/08 09:31:05;;;;;;;9.37;8.27;;;;;;;;;;4954035;29;20829;-84
2022/03/08 09:33:31;;;;;;;10.75;7.97;;;;;;;;;;4937887;29;20457;-85
2022/03/08 09:35:57;;;;;;;11.38;7.95;;;;;;;;;;4938443;29;20418;-84
2022/03/08 09:38:23;;;;;;;11.27;8.05;;;;;;;;;;4953534;28;20980;-83
2022/03/08 09:40:51;;;;;;;11.00;7.88;;;;;;;;;;4954354;28;20423;-81
2022/03/08 09:43:17;;;;;;;10.82;7.60;;;;;;;;;;4938599;29;20438;-82
2022/03/08 09:45:44;;;;;;;9.77;7.53;;;;;;;;;;4936599;28;20770;-81
2022/03/08 09:48:10;;;;;;;9.02;6.82;;;;;;;;;;4948301;29;20457;-81
2022/03/08 09:50:36;;;;;;;9.43;7.07;;;;;;;;;;4953508;29;20406;-81
2022/03/08 09:53:03;;;;;;;8.18;6.57;;;;;;;;;;4953994;29;20531;-78
2022/03/08 09:55:29;;;;;;;8.82;6.65;;;;;;;;;;4943806;28;20422;-79
2022/03/08 09:57:56;;;;;;;10.13;6.40;;;;;;;;;;4953177;29;20516;-79
2022/03/08 10:00:25;;;;;;;9.02;6.35;;;;;;;;;;4953097;29;20410;-79
2022/03/08 10:02:52;;;;;;;8.20;5.93;;;;;;;;;;4954207;28;20782;-82
2022/03/08 10:05:37;;;;;;;11.52;6.50;;;8.20;99.90;;;;;;4953204;28;20421;-79
2022/03/08 10:08:04;;;;;;;10.00;7.33;;;8.20;99.90;;;;;;4952453;28;20425;-79
2022/03/08 10:10:32;;;;;;;9.43;7.38;;;;;;;;;;4950900;29;20848;-81
2022/03/08 10:12:58;;;;;;;9.98;6.60;;;8.30;99.90;;;;;;4919413;29;20431;-82
2022/03/08 10:15:25;;;;;;;9.88;6.43;;;;;;;;;;4930155;29;20489;-83
2022/03/08 10:17:51;;;;;;;8.25;6.65;;;;;;;;;;4938714;29;20473;-82
2022/03/08 10:20:28;;;;;;;8.55;6.30;;;8.90;99.90;;;;;;4953919;28;20832;-82
2022/03/08 10:22:54;;;;;;;11.45;6.38;;;;;;;;;;4953370;28;20438;-81
2022/03/08 10:25:25;;;;;;;11.13;7.57;;;;;;;;;;4937459;29;20854;-82
2022/03/08 10:27:57;;;;;;;7.88;6.43;;;;;;;;;;4953766;28;20500;-81
2022/03/08 10:30:29;;;;;;;7.57;6.18;;;8.40;99.90;;;;;;4953554;28;20410;-82
2022/03/08 10:32:56;;;;;;;10.35;6.22;;;;;;;;;;4953614;28;20422;-82
2022/03/08 10:35:29;;;;;;;8.20;5.95;;;8.80;99.90;;;;;;4937182;29;20414;-81
2022/03/08 10:38:03;;;;;;;8.77;6.10;;;;;;;;;;4939865;29;20542;-84
2022/03/08 10:40:32;;;;;;;9.52;6.50;;;;;;;;;;4953984;29;20477;-83
2022/03/08 10:43:00;;;;;;;9.70;6.60;;;;;;;;;;4953899;28;20438;-82
2022/03/08 10:45:27;;;;;;;9.02;6.70;;;;;;;;;;4937765;29;20440;-81
2022/03/08 10:47:54;;;;;;;9.48;6.53;;;;;;;;;;4953415;28;20524;-83
2022/03/08 10:50:28;;;;;;;9.93;6.88;;;9.00;99.90;;;;;;4953232;28;20409;-83
2022/03/08 10:52:55;;;;;;;10.60;6.68;;;;;;;;;;4937813;29;20409;-82
2022/03/08 10:55:22;;;;;;;8.33;6.50;;;;;;;;;;4953249;28;20428;-83
2022/03/08 10:57:53;;;;;;;8.18;6.07;;;9.10;99.90;;;;;;4953784;29;20517;-83
2022/03/08 11:00:20;;;;;;;9.52;6.38;;;;;;;;;;4937034;29;20424;-83
2022/03/08 11:02:55;;;;;;;7.78;6.35;;;8.90;99.90;;;;;;4947715;29;20450;-83
2022/03/08 11:05:24;;;;;;;13.17;6.33;;;;;;;;;;4952711;28;20406;-83
2022/03/08 11:07:50;;;;;;;11.98;6.15;;;;;;;;;;4934695;29;20840;-82
2022/03/08 11:10:17;;;;;;;11.57;5.57;;;9.30;99.90;;;;;;4952751;29;20428;-82
2022/03/08 11:12:43;;;;;;;9.63;6.23;;;;;;;;;;4952498;28;20422;-82
2022/03/08 11:15:13;;;;;;;10.77;6.68;;;9.00;99.90;;;;;;4918708;29;20412;-83
2022/03/08 11:17:40;;;;;;;8.07;5.93;;;;;;;;;;4944504;28;20509;-83
2022/03/08 11:20:10;;;;;;;11.50;6.47;;;;;;;;;;4952798;28;20456;-83
2022/03/08 11:22:37;;;;;;;7.72;6.13;;;;;;;;;;4952662;29;20450;-81
2022/03/08 11:25:08;;;;;;;8.10;6.22;;;9.50;99.90;;;;;;4953193;29;20414;-82
2022/03/08 11:27:36;;;;;;;8.68;6.40;;;;;;;;;;4952627;28;20928;-83
2022/03/08 11:30:03;;;;;;;8.98;6.75;;;;;;;;;;4952703;28;20852;-84
2022/03/08 11:32:39;;;;;;;8.25;6.13;;;;;;;;;;4953318;28;20496;-83
2022/03/08 11:35:08;;;;;;;10.00;6.15;;;;;;;;;;4954124;28;20445;-82
2022/03/08 11:37:36;;;;;;;6.57;5.63;;;;;;;;;;4952552;28;20474;-74
2022/03/08 11:40:07;;;;;;;8.07;5.78;;;;;;;;;;4952582;29;20468;-75
2022/03/08 11:42:34;;;;;;;7.85;5.53;;;;;;;;;;4952242;28;20434;-75
2022/03/08 11:45:04;;;;;;;7.72;5.55;;;10.10;99.90;;;;;;4952469;28;20402;-75
2022/03/08 11:47:50;;;;;;;11.35;5.85;;;;;;;;;;4950853;29;20473;-75
2022/03/08 11:50:18;;;;;;;8.90;5.30;;;;;;;;;;4926896;29;20859;-75
2022/03/08 11:52:44;;;;;;;7.53;5.22;;;;;;;;;;4949632;28;20496;-76
2022/03/08 11:55:12;;;;;;;7.57;5.53;;;;;;;;;;4951820;28;20421;-76
2022/03/08 11:57:54;;;;;;;7.67;5.73;;;;;;;;;;4952152;29;20917;-77
2022/03/08 12:00:31;;;;;;;8.50;5.28;;;10.00;99.90;;;;;;4951257;29;20497;-77
2022/03/08 12:02:58;;;;;;;6.50;5.00;;;;;;;;;;4941033;29;20941;-76
2022/03/08 12:05:45;;;;;;;9.80;5.25;;;10.50;99.90;;;;;;4952213;28;20410;-76
2022/03/08 12:08:26;;;;;;;6.38;4.90;;;;;;;;;;4947891;28;20430;-75
2022/03/08 12:11:03;;;;;;;7.20;5.15;;;10.20;99.90;;;;;;4935548;29;20426;-76
2022/03/08 12:13:33;;;;;;;9.55;5.38;;;;;;;;;;4949780;29;20996;-75
2022/03/08 12:16:09;;;;;;;7.82;4.90;;;;;;;;;;4949313;29;20969;-75
2022/03/08 12:18:36;;;;;;;8.88;4.90;;;;;;;;;;4950341;28;20433;-76
2022/03/08 12:21:17;;;;;;;6.63;4.50;;;;;;;;;;4939962;28;20469;-75
2022/03/08 12:24:02;;;;;;;7.15;4.68;;;;;;;;;;4936760;29;20440;-75
2022/03/08 12:26:47;;;;;;;8.13;4.80;;;;;;;;;;4949966;28;20414;-75
2022/03/08 12:29:14;;;;;;;6.55;4.55;;;;;;;;;;4940094;29;20406;-75
2022/03/08 12:32:01;;;;;;;6.47;4.53;;;;;;;;;;4955185;28;20420;-75
2022/03/08 12:34:38;;;;;;;7.32;4.60;;;;;;;;;;4944368;29;20875;-75
2022/03/08 12:37:23;;;;;;;6.97;5.00;;;10.50;99.90;;;;;;4939471;29;20444;-75
2022/03/08 12:39:55;;;;;;;7.22;4.78;;;;;;;;;;4955824;29;20416;-76
2022/03/08 12:42:37;;;;;;;7.85;5.15;;;10.40;99.90;;;;;;4954752;29;20436;-75
2022/03/08 12:45:10;;;;;;;6.35;4.43;;;;;;;;;;4939472;29;20508;-75
2022/03/08 12:48:06;;;;;;;9.63;4.95;;;10.40;99.90;;;;;;4955490;28;20484;-75
2022/03/08 12:50:43;;;;;;;7.05;4.82;;;;;;;;;;4934091;29;20440;-75
2022/03/08 12:53:13;;;;;;;6.80;4.60;;;;;;;;;;4954841;29;20418;-75
2022/03/08 12:55:41;;;;;;;5.72;4.72;;;10.60;99.90;;;;;;4955326;28;20488;-75
2022/03/08 12:58:09;;;;;;;6.75;5.20;;;;;;;;;;4955331;29;20504;-75
2022/03/08 13:00:55;;;;;;;7.80;4.85;;;;;;;;;;4955068;28;20429;-75
2022/03/08 13:03:22;;;;;;;6.47;5.13;;;;;;;;;;4954742;29;20429;-75
2022/03/08 13:05:51;;;;;;;7.70;5.40;;;10.40;99.90;;;;;;4954949;28;20513;-75
2022/03/08 13:08:19;;;;;;;8.07;4.95;;;10.70;99.90;;;;;;4954513;29;20960;-75
2022/03/08 13:10:46;;;;;;;10.05;5.30;;;;;;;;;;4954282;29;20454;-75
2022/03/08 13:13:12;;;;;;;8.73;5.18;;;;;;;;;;4954512;29;20785;-75
2022/03/08 13:15:38;;;;;;;8.18;5.10;;;;;;;;;;4955118;28;20409;-75
2022/03/08 13:18:05;;;;;;;7.55;5.00;;;10.70;99.90;;;;;;4954205;28;20924;-75
2022/03/08 13:20:45;;;;;;;8.55;5.35;;;;;;;;;;4956002;28;20418;-75
2022/03/08 13:23:22;;;;;;;6.82;5.47;;;10.50;99.90;;;;;;4954416;28;20469;-75
2022/03/08 13:25:49;;;;;;;12.07;5.70;;;;;;;;;;4954423;28;20973;-75
2022/03/08 13:28:23;;;;;;;8.05;5.68;;;10.40;99.90;;;;;;4954580;28;20514;-76
2022/03/08 13:30:51;;;;;;;9.07;5.43;;;;;;;;;;4937041;28;20456;-76
2022/03/08 13:33:22;;;;;;;7.35;5.32;;;;;;;;;;4952987;28;20422;-76
2022/03/08 13:35:53;;;;;;;8.07;5.40;;;;;;;;;;4954597;28;20909;-76
2022/03/08 13:38:39;;;;;;;7.93;5.13;;;;;;;;;;4938585;29;20414;-76
2022/03/08 13:41:11;;;;;;;6.70;5.00;;;10.10;99.90;;;;;;4937844;28;20461;-76
2022/03/08 13:43:38;;;;;;;7.87;5.40;;;;;;;;;;4949401;28;20444;-76
2022/03/08 13:46:06;;;;;;;7.22;5.40;;;;;;;;;;4953387;28;20840;-75
2022/03/08 13:48:34;;;;;;;7.15;5.30;;;;;;;;;;4952451;28;20414;-75
2022/03/08 13:51:07;;;;;;;12.48;5.13;;;10.40;99.90;;;;;;4937364;29;20473;-75
2022/03/08 13:53:34;;;;;;;7.63;5.28;;;;;;;;;;4935858;28;20468;-76
2022/03/08 13:56:00;;;;;;;7.53;4.95;;;;;;;;;;4953371;28;20418;-76
2022/03/08 13:58:31;;;;;;;9.80;5.55;;;;;;;;;;4953569;29;20975;-76
2022/03/08 14:00:57;;;;;;;7.25;5.70;;;;;;;;;;4940733;28;20423;-76
2022/03/08 14:03:23;;;;;;;8.23;5.70;;;;;;;;;;4955287;28;20429;-75
2022/03/08 14:05:52;;;;;;;8.43;5.70;;;;;;;;;;4953209;29;20914;-75
2022/03/08 14:08:26;;;;;;;8.95;5.97;;;;;;;;;;4952896;28;20418;-75
2022/03/08 14:10:53;;;;;;;7.97;5.53;;;10.50;99.90;;;;;;4953816;28;20414;-77
2022/03/08 14:13:20;;;;;;;8.70;5.20;;;;;;;;;;4936993;29;20472;-77
2022/03/08 14:15:53;;;;;;;9.25;5.15;;;;;;;;;;4952889;29;20422;-75
2022/03/08 14:18:19;;;;;;;7.18;4.95;;;;;;;;;;4955143;28;20426;-75
2022/03/08 14:20:46;;;;;;;7.13;5.00;;;;;;;;;;4952912;29;20424;-75